Serval — J8B4154 — position and weather

sailwx.info

Track history (hours):
 
Tides and Currents Weather Stations Pressure Air Temp Water Temp Dewpoint Dewpoint Depression Visibility Wind Speed Wind Dir Waves Ship Positions

Serval

Last reported at 2016-Jun-30 04:33 UTC. Time now 2016-Jun-30 05:04 UTC.
Position N 46°33' E 030°57'.

Length 30 m; draft 5 m.

Type: Tow > 200 m length. MMSI: 377103000.

Date/timePositionNaut miles runAvg speedWind from/ knotsBaromVisibWave heightAir tempDewpointWater temp
2016-Jun-30 04:33N 46°33' E 030°57'1 0.9
2016-Jun-30 03:33N 46°33' E 030°55'0 0.5
2016-Jun-30 02:33N 46°33' E 030°55'2 2.1
2016-Jun-30 01:33N 46°33' E 030°58'1 1.4
2016-Jun-30 00:33N 46°33' E 030°56'1 0.6
2016-Jun-29 23:33N 46°33' E 030°56'1 1.4
2016-Jun-29 22:33N 46°32' E 030°58'2 2.5
2016-Jun-29 21:33N 46°30' E 030°57'3 3.4
2016-Jun-29 20:33N 46°27' E 030°57'4 3.4
2016-Jun-29 19:31N 46°23' E 030°57'14 3.4
2016-Jun-29 15:31N 46°10' E 030°54'  
2016-Jun-22 22:26N 45°59' E 031°02'8 8.8
2016-Jun-22 21:28N 46°07' E 031°04'8 8.8
2016-Jun-22 20:34N 46°13' E 030°56'8 7.9
2016-Jun-22 19:34N 46°21' E 030°55'9 9.0
2016-Jun-22 18:34N 46°30' E 030°56'10 0.2
2016-Jun-21 03:31N 46°39' E 031°01'0 0.0
2016-Jun-21 02:27N 46°39' E 031°01'0 0.0
2016-Jun-21 01:22N 46°39' E 031°01'0 0.0
2016-Jun-21 00:30N 46°39' E 031°01'0 0.0
2016-Jun-20 16:21N 46°39' E 031°01'  
Track history (hours):
 
Tides and Currents Weather Stations Pressure Air Temp Water Temp Dewpoint Dewpoint Depression Visibility Wind Speed Wind Dir Waves Ship Positions

Serval

Last reported at 2016-Jun-30 04:33 UTC. Time now 2016-Jun-30 05:04 UTC.
Position N 46°33' E 030°57'.

Length 30 m; draft 5 m.

Type: Tow > 200 m length. MMSI: 377103000.

Date/timePositionNaut miles runAvg speedWind from/ knotsBaromVisibWave heightAir tempDewpointWater temp
2016-Jun-30 04:33N 46°33' E 030°57'1 0.9
2016-Jun-30 03:33N 46°33' E 030°55'0 0.5
2016-Jun-30 02:33N 46°33' E 030°55'2 2.1
2016-Jun-30 01:33N 46°33' E 030°58'1 1.4
2016-Jun-30 00:33N 46°33' E 030°56'1 0.6
2016-Jun-29 23:33N 46°33' E 030°56'1 1.4
2016-Jun-29 22:33N 46°32' E 030°58'2 2.5
2016-Jun-29 21:33N 46°30' E 030°57'3 3.4
2016-Jun-29 20:33N 46°27' E 030°57'4 3.4
2016-Jun-29 19:31N 46°23' E 030°57'14 3.4
2016-Jun-29 15:31N 46°10' E 030°54'  
2016-Jun-22 22:26N 45°59' E 031°02'8 8.8
2016-Jun-22 21:28N 46°07' E 031°04'8 8.8
2016-Jun-22 20:34N 46°13' E 030°56'8 7.9
2016-Jun-22 19:34N 46°21' E 030°55'9 9.0
2016-Jun-22 18:34N 46°30' E 030°56'10 0.2
2016-Jun-21 03:31N 46°39' E 031°01'0 0.0
2016-Jun-21 02:27N 46°39' E 031°01'0 0.0
2016-Jun-21 01:22N 46°39' E 031°01'0 0.0
2016-Jun-21 00:30N 46°39' E 031°01'0 0.0
2016-Jun-20 16:21N 46°39' E 031°01'  

Dump ship's entire track history